Time;durP1;ratioP1;P1;durP2;ratioP2;P2;SDS_P1;SDS_P2;PMS_P1;PMS_P2;Temp;Humidity;BMP_temperature;BMP_pressure;BME280_temperature;BME280_humidity;BME280_pressure;Samples;Min_cycle;Max_cycle;Signal;HPM_P1;HPM_P2
2022/10/16 00:01:22;;;;;;;;;;;;;;;;;;5014315;28;1250;-73
2022/10/16 00:03:48;;;;;;;;;;;;;;;;;;5031291;28;963;-73
2022/10/16 00:06:14;;;;;;;;;;;;;;;;;;5031982;28;1964;-73
2022/10/16 00:08:39;;;;;;;;;;;;;;;;;;5014039;28;1181;-73
2022/10/16 00:11:07;;;;;;;;;;;;;;;;;;5014530;28;1205;-72
2022/10/16 00:13:33;;;;;;;;;;;;;;;;;;5031713;28;845;-72
2022/10/16 00:15:59;;;;;;;;;;;;;;;;;;5014189;28;1343;-73
2022/10/16 00:18:25;;;;;;;;;;;;;;;;;;5014225;28;1181;-73
2022/10/16 00:20:50;;;;;;;;;;;;;;;;;;5032344;28;841;-73
2022/10/16 00:23:15;;;;;;;;;;;;;;;;;;5014194;28;1115;-73
2022/10/16 00:25:40;;;;;;;;;;;;;;;;;;5031205;28;1955;-73
2022/10/16 00:28:06;;;;;;;;;;;;;;;;;;5013790;28;1167;-73
2022/10/16 00:30:31;;;;;;;;;;;;;;;;;;5013963;28;1184;-73
2022/10/16 00:32:56;;;;;;;;;;;;;;;;;;5030541;28;805;-73
2022/10/16 00:35:22;;;;;;;;;;;;;;;;;;5030445;28;889;-73
2022/10/16 00:37:47;;;;;;;;;;;;;;;;;;5030649;28;885;-73
2022/10/16 00:40:12;;;;;;;;;;;;;;;;;;5013768;28;1217;-73
2022/10/16 00:42:38;;;;;;;;;;;;;;;;;;5013519;28;1323;-73
2022/10/16 00:45:04;;;;;;;;;;;;;;;;;;5032439;28;1975;-73
2022/10/16 00:47:31;;;;;;;;;;;;;;;;;;5032700;28;1011;-73
2022/10/16 00:50:05;;;;;;;;;;;;;;;;;;5015212;28;1366;-73
2022/10/16 00:52:30;;;;;;;;;;;;;;;;;;5015599;28;1189;-72
2022/10/16 00:54:56;;;;;;;;;;;;;;;;;;5015919;28;1180;-73
2022/10/16 00:57:22;;;;;;;;;;;;;;;;;;5033395;28;1086;-73
2022/10/16 00:59:47;;;;;;;;;;;;;;;;;;5015300;28;1104;-73
2022/10/16 01:02:14;;;;;;;;;;;;;;;;;;5015440;28;1446;-73
2022/10/16 01:04:50;;;;;;;;;;;;;;;;;;5033067;28;896;-72
2022/10/16 01:07:34;;;;;;;;;;;;;;;;;;5015925;28;1971;-72
2022/10/16 01:09:59;;;;;;;;;;;;;;;;;;5034479;28;833;-72
2022/10/16 01:12:43;;;;;;;;;;;;;;;;;;5033122;28;873;-72
2022/10/16 01:15:11;;;;;;;;;;;;;;;;;;5017307;28;1276;-72
2022/10/16 01:17:42;;;;;;;;;;;;;;;;;;5016998;28;1491;-72
2022/10/16 01:20:18;;;;;;;;;;;;;;;;;;5035128;28;857;-72
2022/10/16 01:22:55;;;;;;;;;;;;;;;;;;5016703;28;1284;-72
2022/10/16 01:25:39;;;;;;;;;;;;;;;;;;5041348;28;1959;-73
2022/10/16 01:28:07;;;;;;;;;;;;;;;;;;5027150;28;1281;-72
2022/10/16 01:30:33;;;;;;;;;;;;;;;;;;5025655;28;1340;-72
2022/10/16 01:32:59;;;;;;;;;;;;;;;;;;5035210;28;876;-73
2022/10/16 01:35:39;;;;;;;;;;;;;;;;;;5017279;28;1225;-72
2022/10/16 01:38:04;;;;;;;;;;;;;;;;;;5035385;28;913;-72
2022/10/16 01:40:32;;;;;;;;;;;;;;;;;;5035315;28;803;-72
2022/10/16 01:43:18;;;;;;;;;;;;;;;;;;5034980;28;946;-72
2022/10/16 01:45:44;;;;;;;;;;;;;;;;;;5016522;28;1955;-72
2022/10/16 01:48:12;;;;;;;;;;;;;;;;;;5017361;28;1128;-72
2022/10/16 01:50:39;;;;;;;;;;;;;;;;;;5016753;28;1398;-72
2022/10/16 01:53:05;;;;;;;;;;;;;;;;;;5016793;28;1233;-72
2022/10/16 01:55:33;;;;;;;;;;;;;;;;;;5033421;28;821;-72
2022/10/16 01:58:00;;;;;;;;;;;;;;;;;;5034721;28;952;-72
2022/10/16 02:00:26;;;;;;;;;;;;;;;;;;5034561;28;1054;-72
2022/10/16 02:02:52;;;;;;;;;;;;;;;;;;5034765;28;884;-72
2022/10/16 02:05:32;;;;;;;;;;;;;;;;;;5016502;28;1948;-72
2022/10/16 02:07:57;;;;;;;;;;;;;;;;;;5034342;28;829;-72
2022/10/16 02:10:30;;;;;;;;;;;;;;;;;;5034519;28;979;-72
2022/10/16 02:13:22;;;;;;;;;;;;;;;;;;5034988;28;923;-72
2022/10/16 02:15:47;;;;;;;;;;;;;;;;;;5013883;28;1266;-72
2022/10/16 02:18:13;;;;;;;;;;;;;;;;;;5016629;28;1144;-72
2022/10/16 02:20:53;;;;;;;;;;;;;;;;;;5016044;28;1213;-72
2022/10/16 02:23:29;;;;;;;;;;;;;;;;;;5016563;28;1126;-72
2022/10/16 02:25:56;;;;;;;;;;;;;;;;;;5016834;28;1894;-72
2022/10/16 02:28:28;;;;;;;;;;;;;;;;;;5035633;28;1083;-73
2022/10/16 02:31:02;;;;;;;;;;;;;;;;;;5016435;28;1323;-72
2022/10/16 02:33:29;;;;;;;;;;;;;;;;;;5035238;28;1023;-72
2022/10/16 02:35:55;;;;;;;;;;;;;;;;;;5021061;28;1153;-72
2022/10/16 02:38:21;;;;;;;;;;;;;;;;;;5023743;28;1288;-73
2022/10/16 02:40:46;;;;;;;;;;;;;;;;;;5022979;28;1350;-72
2022/10/16 02:43:12;;;;;;;;;;;;;;;;;;5042548;28;988;-73
2022/10/16 02:45:38;;;;;;;;;;;;;;;;;;5040233;28;1968;-73
2022/10/16 02:48:03;;;;;;;;;;;;;;;;;;5022602;28;1270;-73
2022/10/16 02:50:28;;;;;;;;;;;;;;;;;;5021186;28;1380;-72
2022/10/16 02:52:54;;;;;;;;;;;;;;;;;;5038147;28;1070;-72
2022/10/16 02:55:19;;;;;;;;;;;;;;;;;;5020599;28;1200;-72
2022/10/16 02:57:44;;;;;;;;;;;;;;;;;;5020634;28;1316;-72
2022/10/16 03:00:11;;;;;;;;;;;;;;;;;;5021485;28;1110;-73
2022/10/16 03:02:37;;;;;;;;;;;;;;;;;;5020950;28;1134;-73
2022/10/16 03:05:02;;;;;;;;;;;;;;;;;;5021612;28;1165;-73
2022/10/16 03:07:27;;;;;;;;;;;;;;;;;;5044113;28;1961;-73
2022/10/16 03:09:54;;;;;;;;;;;;;;;;;;5046406;28;849;-73
2022/10/16 03:12:19;;;;;;;;;;;;;;;;;;5030424;28;1360;-72
2022/10/16 03:14:45;;;;;;;;;;;;;;;;;;5023550;28;1231;-73
2022/10/16 03:17:10;;;;;;;;;;;;;;;;;;5032353;28;940;-73
2022/10/16 03:19:35;;;;;;;;;;;;;;;;;;5015636;28;1279;-72
2022/10/16 03:22:01;;;;;;;;;;;;;;;;;;5032581;28;844;-73
2022/10/16 03:24:28;;;;;;;;;;;;;;;;;;5033045;28;971;-72
2022/10/16 03:26:54;;;;;;;;;;;;;;;;;;5031456;28;1960;-73
2022/10/16 03:29:19;;;;;;;;;;;;;;;;;;5011636;28;1234;-73
2022/10/16 03:31:44;;;;;;;;;;;;;;;;;;5012771;28;980;-73
2022/10/16 03:34:09;;;;;;;;;;;;;;;;;;5012060;28;1227;-73
2022/10/16 03:36:35;;;;;;;;;;;;;;;;;;5013073;28;1011;-73
2022/10/16 03:39:00;;;;;;;;;;;;;;;;;;5028791;28;935;-73
2022/10/16 03:41:25;;;;;;;;;;;;;;;;;;5028801;28;833;-73
2022/10/16 03:43:51;;;;;;;;;;;;;;;;;;5035132;28;889;-73
2022/10/16 03:46:16;;;;;;;;;;;;;;;;;;5012504;28;1969;-73
2022/10/16 03:48:41;;;;;;;;;;;;;;;;;;5013518;28;943;-73
2022/10/16 03:51:06;;;;;;;;;;;;;;;;;;5013826;28;845;-73
2022/10/16 03:53:32;;;;;;;;;;;;;;;;;;5012145;28;1572;-73
2022/10/16 03:55:58;;;;;;;;;;;;;;;;;;5028701;28;1315;-73
2022/10/16 03:58:23;;;;;;;;;;;;;;;;;;5013150;28;811;-73
2022/10/16 04:00:48;;;;;;;;;;;;;;;;;;5028349;28;869;-73
2022/10/16 04:03:13;;;;;;;;;;;;;;;;;;5012249;28;873;-73
2022/10/16 04:05:39;;;;;;;;;;;;;;;;;;5010724;28;1965;-73
2022/10/16 04:08:05;;;;;;;;;;;;;;;;;;5011034;28;1144;-73
2022/10/16 04:10:30;;;;;;;;;;;;;;;;;;5027474;28;817;-73
2022/10/16 04:12:55;;;;;;;;;;;;;;;;;;5026931;28;1042;-73
2022/10/16 04:15:21;;;;;;;;;;;;;;;;;;5012334;28;829;-73
2022/10/16 04:17:47;;;;;;;;;;;;;;;;;;5011481;28;1293;-73
2022/10/16 04:20:12;;;;;;;;;;;;;;;;;;5012442;28;1261;-73
2022/10/16 04:22:38;;;;;;;;;;;;;;;;;;5027383;28;1014;-73
2022/10/16 04:25:04;;;;;;;;;;;;;;;;;;5012489;28;956;-73
2022/10/16 04:27:31;;;;;;;;;;;;;;;;;;5012437;28;1973;-73
2022/10/16 04:29:56;;;;;;;;;;;;;;;;;;5026525;28;1234;-73
2022/10/16 04:32:22;;;;;;;;;;;;;;;;;;5012073;28;865;-73
2022/10/16 04:34:47;;;;;;;;;;;;;;;;;;5026549;28;860;-73
2022/10/16 04:37:12;;;;;;;;;;;;;;;;;;5026910;28;821;-73
2022/10/16 04:39:38;;;;;;;;;;;;;;;;;;5026956;28;889;-73
2022/10/16 04:42:03;;;;;;;;;;;;;;;;;;5011881;28;975;-73
2022/10/16 04:44:28;;;;;;;;;;;;;;;;;;5026992;28;841;-73
2022/10/16 04:46:53;;;;;;;;;;;;;;;;;;5011772;28;1891;-73
2022/10/16 04:49:19;;;;;;;;;;;;;;;;;;5011911;28;1181;-73
2022/10/16 04:51:44;;;;;;;;;;;;;;;;;;5030283;28;871;-73
2022/10/16 04:54:10;;;;;;;;;;;;;;;;;;5030760;28;841;-73
2022/10/16 04:56:42;;;;;;;;;;;;;;;;;;5015324;28;822;-73
2022/10/16 04:59:08;;;;;;;;;;;;;;;;;;5014632;28;1191;-74
2022/10/16 05:01:33;;;;;;;;;;;;;;;;;;5030554;28;869;-74
2022/10/16 05:03:58;;;;;;;;;;;;;;;;;;5014418;28;1155;-74
2022/10/16 05:06:23;;;;;;;;;;;;;;;;;;5030826;28;1906;-74
2022/10/16 05:08:48;;;;;;;;;;;;;;;;;;5014351;28;1279;-74
2022/10/16 05:11:14;;;;;;;;;;;;;;;;;;5031610;28;1044;-74
2022/10/16 05:13:39;;;;;;;;;;;;;;;;;;5015147;28;1314;-73
2022/10/16 05:16:04;;;;;;;;;;;;;;;;;;5015830;28;1011;-73
2022/10/16 05:18:30;;;;;;;;;;;;;;;;;;5014334;28;1331;-73
2022/10/16 05:20:55;;;;;;;;;;;;;;;;;;5015790;28;896;-73
2022/10/16 05:23:20;;;;;;;;;;;;;;;;;;5014681;28;1024;-73
2022/10/16 05:25:52;;;;;;;;;;;;;;;;;;5013151;28;1906;-73
2022/10/16 05:28:17;;;;;;;;;;;;;;;;;;5013772;28;1316;-73
2022/10/16 05:30:42;;;;;;;;;;;;;;;;;;5029991;28;899;-73
2022/10/16 05:33:08;;;;;;;;;;;;;;;;;;5013607;28;1417;-73
2022/10/16 05:35:33;;;;;;;;;;;;;;;;;;5013250;28;1327;-73
2022/10/16 05:37:59;;;;;;;;;;;;;;;;;;5014767;28;896;-73
2022/10/16 05:40:24;;;;;;;;;;;;;;;;;;5011962;28;1303;-73
2022/10/16 05:42:49;;;;;;;;;;;;;;;;;;5011728;28;1314;-73
2022/10/16 05:45:14;;;;;;;;;;;;;;;;;;5028511;28;1910;-72
2022/10/16 05:47:40;;;;;;;;;;;;;;;;;;5028528;28;877;-73
2022/10/16 05:50:05;;;;;;;;;;;;;;;;;;5028542;28;1016;-73
2022/10/16 05:52:30;;;;;;;;;;;;;;;;;;5028470;28;1199;-73
2022/10/16 05:54:56;;;;;;;;;;;;;;;;;;5012321;28;1054;-73
2022/10/16 05:57:21;;;;;;;;;;;;;;;;;;5012432;28;1191;-73
2022/10/16 05:59:46;;;;;;;;;;;;;;;;;;5013909;28;912;-73
2022/10/16 06:02:12;;;;;;;;;;;;;;;;;;5012746;28;1215;-73
2022/10/16 06:04:38;;;;;;;;;;;;;;;;;;5012659;28;1299;-73
2022/10/16 06:07:03;;;;;;;;;;;;;;;;;;5029168;28;1902;-73
2022/10/16 06:09:28;;;;;;;;;;;;;;;;;;5012414;28;1223;-74
2022/10/16 06:11:53;;;;;;;;;;;;;;;;;;5013661;28;837;-75
2022/10/16 06:14:19;;;;;;;;;;;;;;;;;;5012146;28;1387;-75
2022/10/16 06:16:44;;;;;;;;;;;;;;;;;;5012920;28;1007;-75
2022/10/16 06:19:09;;;;;;;;;;;;;;;;;;5028621;28;916;-75
2022/10/16 06:21:35;;;;;;;;;;;;;;;;;;5011774;28;1433;-75
2022/10/16 06:24:00;;;;;;;;;;;;;;;;;;5028905;28;888;-74
2022/10/16 06:26:26;;;;;;;;;;;;;;;;;;5012350;28;1890;-74
2022/10/16 06:28:53;;;;;;;;;;;;;;;;;;5021999;28;1137;-75
2022/10/16 06:31:21;;;;;;;;;;;;;;;;;;5016163;28;1133;-74
2022/10/16 06:33:50;;;;;;;;;;;;;;;;;;5015777;28;1300;-75
2022/10/16 06:36:16;;;;;;;;;;;;;;;;;;5033562;28;966;-75
2022/10/16 06:38:42;;;;;;;;;;;;;;;;;;5033754;28;838;-75
2022/10/16 06:41:09;;;;;;;;;;;;;;;;;;5015944;28;1328;-75
2022/10/16 06:43:37;;;;;;;;;;;;;;;;;;5032649;28;888;-75
2022/10/16 06:46:03;;;;;;;;;;;;;;;;;;5014787;28;1879;-75
2022/10/16 06:48:29;;;;;;;;;;;;;;;;;;5031768;28;967;-75
2022/10/16 06:50:57;;;;;;;;;;;;;;;;;;5032607;28;849;-75
2022/10/16 06:53:22;;;;;;;;;;;;;;;;;;5014966;28;1406;-75
2022/10/16 06:55:47;;;;;;;;;;;;;;;;;;5032835;28;991;-75
2022/10/16 06:58:13;;;;;;;;;;;;;;;;;;5032547;28;829;-75
2022/10/16 07:00:38;;;;;;;;;;;;;;;;;;5013745;28;1298;-75
2022/10/16 07:03:03;;;;;;;;;;;;;;;;;;5030153;28;1062;-74
2022/10/16 07:05:29;;;;;;;;;;;;;;;;;;5012990;28;1870;-74
2022/10/16 07:07:54;;;;;;;;;;;;;;;;;;5029700;28;1161;-74
2022/10/16 07:10:23;;;;;;;;;;;;;;;;;;5030986;28;1145;-75
2022/10/16 07:12:49;;;;;;;;;;;;;;;;;;5030549;28;1315;-75
2022/10/16 07:15:14;;;;;;;;;;;;;;;;;;5032946;28;918;-75
2022/10/16 07:17:39;;;;;;;;;;;;;;;;;;5021590;28;1205;-74
2022/10/16 07:20:05;;;;;;;;;;;;;;;;;;5035168;28;999;-75
2022/10/16 07:22:32;;;;;;;;;;;;;;;;;;5031040;28;900;-74
2022/10/16 07:24:57;;;;;;;;;;;;;;;;;;5032442;28;896;-74
2022/10/16 07:27:24;;;;;;;;;;;;;;;;;;5014720;28;1914;-74
2022/10/16 07:29:49;;;;;;;;;;;;;;;;;;5030928;28;1164;-74
2022/10/16 07:32:14;;;;;;;;;;;;;;;;;;5014806;28;1382;-74
2022/10/16 07:34:40;;;;;;;;;;;;;;;;;;5014949;28;1168;-74
2022/10/16 07:37:05;;;;;;;;;;;;;;;;;;5031337;28;912;-74
2022/10/16 07:39:31;;;;;;;;;;;;;;;;;;5016307;28;1114;-74
2022/10/16 07:41:56;;;;;;;;;;;;;;;;;;5020861;28;1019;-74
2022/10/16 07:44:21;;;;;;;;;;;;;;;;;;5038421;28;912;-75
2022/10/16 07:46:47;;;;;;;;;;;;;;;;;;5035158;28;1902;-75
2022/10/16 07:49:12;;;;;;;;;;;;;;;;;;5015056;28;1184;-74
2022/10/16 07:51:39;;;;;;;;;;;;;;;;;;5014908;28;1225;-74
2022/10/16 07:54:04;;;;;;;;;;;;;;;;;;5032474;28;853;-75
2022/10/16 07:56:30;;;;;;;;;;;;;;;;;;5015092;28;1276;-75
2022/10/16 07:58:56;;;;;;;;;;;;;;;;;;5032958;28;907;-75
2022/10/16 08:01:21;;;;;;;;;;;;;;;;;;5014849;28;1347;-75
2022/10/16 08:03:50;;;;;;;;;;;;;;;;;;5014438;28;1215;-76
2022/10/16 08:06:16;;;;;;;;;;;;;;;;;;5014197;28;1957;-76
2022/10/16 08:08:41;;;;;;;;;;;;;;;;;;5031725;28;916;-76
2022/10/16 08:11:16;;;;;;;;;;;;;;;;;;5030494;28;1199;-75
2022/10/16 08:13:44;;;;;;;;;;;;;;;;;;5031772;28;905;-75
2022/10/16 08:16:09;;;;;;;;;;;;;;;;;;5031894;28;1014;-75
2022/10/16 08:18:35;;;;;;;;;;;;;;;;;;5013953;28;1137;-75
2022/10/16 08:21:01;;;;;;;;;;;;;;;;;;5031615;28;850;-75
2022/10/16 08:23:27;;;;;;;;;;;;;;;;;;5030755;28;885;-75
2022/10/16 08:25:53;;;;;;;;;;;;;;;;;;5017511;28;1902;-75
2022/10/16 08:28:18;;;;;;;;;;;;;;;;;;5017645;28;1326;-76
2022/10/16 08:30:44;;;;;;;;;;;;;;;;;;5034441;28;898;-75
2022/10/16 08:33:09;;;;;;;;;;;;;;;;;;5034439;28;925;-75
2022/10/16 08:35:34;;;;;;;;;;;;;;;;;;5017224;28;1047;-76
2022/10/16 08:38:00;;;;;;;;;;;;;;;;;;5017768;28;1302;-75
2022/10/16 08:40:27;;;;;;;;;;;;;;;;;;5018179;28;1155;-75
2022/10/16 08:42:55;;;;;;;;;;;;;;;;;;5034690;28;864;-75
2022/10/16 08:45:27;;;;;;;;;;;;;;;;;;5035194;28;1898;-74
2022/10/16 08:47:52;;;;;;;;;;;;;;;;;;5017536;28;1102;-74
2022/10/16 08:50:28;;;;;;;;;;;;;;;;;;5035387;28;1118;-74
2022/10/16 08:52:54;;;;;;;;;;;;;;;;;;5017063;28;1204;-74
2022/10/16 08:55:29;;;;;;;;;;;;;;;;;;5017307;28;1375;-73
2022/10/16 08:57:54;;;;;;;;;;;;;;;;;;5033312;28;1194;-73
2022/10/16 09:00:20;;;;;;;;;;;;;;;;;;5016795;28;1183;-73
2022/10/16 09:02:59;;;;;;;;;;;;;;;;;;5034781;28;1089;-73
2022/10/16 09:05:37;;;;;;;;;;;;;;;;;;5017309;28;1890;-74
2022/10/16 09:08:02;;;;;;;;;;;;;;;;;;5035160;28;849;-76
2022/10/16 09:10:27;;;;;;;;;;;;;;;;;;5035020;28;852;-73
2022/10/16 09:12:58;;;;;;;;;;;;;;;;;;5017649;28;1356;-73
2022/10/16 09:15:47;;;;;;;;;;;;;;;;;;5017867;28;1337;-73
2022/10/16 09:18:16;;;;;;;;;;;;;;;;;;5029627;28;1310;-73
2022/10/16 09:21:00;;;;;;;;;;;;;;;;;;5017174;28;849;-73
2022/10/16 09:23:26;;;;;;;;;;;;;;;;;;5034955;28;829;-73
2022/10/16 09:25:52;;;;;;;;;;;;;;;;;;5017134;28;1967;-73
2022/10/16 09:28:18;;;;;;;;;;;;;;;;;;5034898;28;1193;-73
2022/10/16 09:30:44;;;;;;;;;;;;;;;;;;5031979;28;948;-73
2022/10/16 09:33:11;;;;;;;;;;;;;;;;;;5033686;28;987;-73
2022/10/16 09:35:38;;;;;;;;;;;;;;;;;;5032436;28;877;-73
2022/10/16 09:38:03;;;;;;;;;;;;;;;;;;5033220;28;849;-73
2022/10/16 09:40:31;;;;;;;;;;;;;;;;;;5032999;28;913;-73
2022/10/16 09:43:01;;;;;;;;;;;;;;;;;;5015460;28;1212;-73
2022/10/16 09:45:26;;;;;;;;;;;;;;;;;;5033367;28;1973;-73
2022/10/16 09:47:51;;;;;;;;;;;;;;;;;;5031649;28;1280;-73
2022/10/16 09:50:23;;;;;;;;;;;;;;;;;;5032869;28;956;-73
2022/10/16 09:52:48;;;;;;;;;;;;;;;;;;5032255;28;845;-73
2022/10/16 09:55:15;;;;;;;;;;;;;;;;;;5014952;28;1189;-73
2022/10/16 09:57:50;;;;;;;;;;;;;;;;;;5015206;28;1294;-72
2022/10/16 10:00:20;;;;;;;;;;;;;;;;;;5015552;28;1261;-72
2022/10/16 10:02:46;;;;;;;;;;;;;;;;;;5014922;28;1342;-72
2022/10/16 10:05:40;;;;;;;;;;;;;;;;;;5033045;28;884;-72
2022/10/16 10:08:07;;;;;;;;;;;;;;;;;;5023544;28;1256;-72
2022/10/16 10:10:36;;;;;;;;;;;;;;;;;;5030985;28;1328;-72
2022/10/16 10:13:02;;;;;;;;;;;;;;;;;;5014966;28;1402;-72
2022/10/16 10:15:30;;;;;;;;;;;;;;;;;;5032626;28;1003;-72
2022/10/16 10:17:56;;;;;;;;;;;;;;;;;;5014583;28;1208;-73
2022/10/16 10:20:21;;;;;;;;;;;;;;;;;;5014647;28;1410;-73
2022/10/16 10:22:47;;;;;;;;;;;;;;;;;;5032787;28;830;-72
2022/10/16 10:25:12;;;;;;;;;;;;;;;;;;5031702;28;849;-72
2022/10/16 10:27:50;;;;;;;;;;;;;;;;;;5032566;28;1965;-73
2022/10/16 10:30:23;;;;;;;;;;;;;;;;;;4978609;28;507063;-72
2022/10/16 10:33:07;;;;;;;;;;;;;;;;;;5012008;28;1335;-72
2022/10/16 10:35:44;;;;;;;;;;;;;;;;;;5012268;28;1101;-72
2022/10/16 10:38:28;;;;;;;;;;;;;;;;;;5014305;28;899;-72
2022/10/16 10:41:06;;;;;;;;;;;;;;;;;;5014241;28;920;-72
2022/10/16 10:43:37;;;;;;;;;;;;;;;;;;5012710;28;1213;-72
2022/10/16 10:46:04;;;;;;;;;;;;;;;;;;5013228;28;1875;-72
2022/10/16 10:48:29;;;;;;;;;;;;;;;;;;5013588;28;775;-73
2022/10/16 10:51:01;;;;;;;;;;;;;;;;;;5014042;28;963;-73
2022/10/16 10:53:29;;;;;;;;;;;;;;;;;;5012341;28;1298;-73
2022/10/16 10:56:03;;;;;;;;;;;;;;;;;;5011850;28;1522;-73
2022/10/16 10:58:45;;;;;;;;;;;;;;;;;;5013734;28;873;-74
2022/10/16 11:01:14;;;;;;;;;;;;;;;;;;5013809;28;829;-73
2022/10/16 11:03:58;;;;;;;;;;;;;;;;;;5019192;28;833;-73
2022/10/16 11:06:24;;;;;;;;;;;;;;;;;;5029033;28;1871;-73
2022/10/16 11:08:59;;;;;;;;;;;;;;;;;;5028826;28;1185;-74
2022/10/16 11:11:29;;;;;;;;;;;;;;;;;;5016649;28;1189;-74
2022/10/16 11:14:03;;;;;;;;;;;;;;;;;;5033612;28;1118;-74
2022/10/16 11:16:31;;;;;;;;;;;;;;;;;;5024139;28;1039;-73
2022/10/16 11:19:01;;;;;;;;;;;;;;;;;;5018258;28;1228;-72
2022/10/16 11:21:28;;;;;;;;;;;;;;;;;;5017235;28;1431;-72
2022/10/16 11:24:23;;;;;;;;;;;;;;;;;;5017134;28;1338;-73
2022/10/16 11:26:50;;;;;;;;;;;;;;;;;;5007222;28;1944;-73
2022/10/16 11:29:19;;;;;;;;;;;;;;;;;;5017982;28;1271;-72
2022/10/16 11:31:48;;;;;;;;;;;;;;;;;;5016821;28;1006;-73
2022/10/16 11:34:16;;;;;;;;;;;;;;;;;;5019341;28;861;-74
2022/10/16 11:36:45;;;;;;;;;;;;;;;;;;5018804;28;900;-74
2022/10/16 11:39:31;;;;;;;;;;;;;;;;;;5021406;28;1252;-73
2022/10/16 11:42:10;;;;;;;;;;;;;;;;;;5025381;28;1524;-74
2022/10/16 11:44:44;;;;;;;;;;;;;;;;;;5029383;28;972;-74
2022/10/16 11:47:28;;;;;;;;;;;;;;;;;;5014464;28;1970;-74
2022/10/16 11:49:59;;;;;;;;;;;;;;;;;;5014229;28;1125;-74
2022/10/16 11:52:24;;;;;;;;;;;;;;;;;;5014737;28;1224;-74
2022/10/16 11:55:03;;;;;;;;;;;;;;;;;;5011833;28;1302;-74
2022/10/16 11:57:28;;;;;;;;;;;;;;;;;;5012190;28;1308;-74
2022/10/16 11:59:53;;;;;;;;;;;;;;;;;;5013084;28;941;-74
2022/10/16 12:02:18;;;;;;;;;;;;;;;;;;5013527;28;861;-74
2022/10/16 12:04:49;;;;;;;;;;;;;;;;;;5013345;28;913;-74
2022/10/16 12:07:24;;;;;;;;;;;;;;;;;;5013246;28;1910;-74
2022/10/16 12:09:49;;;;;;;;;;;;;;;;;;5012633;28;1330;-74
2022/10/16 12:12:36;;;;;;;;;;;;;;;;;;5028287;28;1086;-74
2022/10/16 12:15:17;;;;;;;;;;;;;;;;;;5013500;28;833;-74
2022/10/16 12:17:42;;;;;;;;;;;;;;;;;;5012785;28;976;-74
2022/10/16 12:20:11;;;;;;;;;;;;;;;;;;5028094;28;1176;-74
2022/10/16 12:22:36;;;;;;;;;;;;;;;;;;5010026;28;1282;-74
2022/10/16 12:25:01;;;;;;;;;;;;;;;;;;5027246;28;903;-74
2022/10/16 12:27:29;;;;;;;;;;;;;;;;;;5010488;28;1918;-74
2022/10/16 12:29:56;;;;;;;;;;;;;;;;;;5010390;28;1454;-74
2022/10/16 12:32:26;;;;;;;;;;;;;;;;;;5011865;28;853;-73
2022/10/16 12:34:52;;;;;;;;;;;;;;;;;;5010200;28;1542;-73
2022/10/16 12:37:25;;;;;;;;;;;;;;;;;;5043311;28;1370;-73
2022/10/16 12:39:52;;;;;;;;;;;;;;;;;;5011409;28;849;-74
2022/10/16 12:42:22;;;;;;;;;;;;;;;;;;5011898;28;948;-73
2022/10/16 12:44:48;;;;;;;;;;;;;;;;;;5010093;28;1335;-73
2022/10/16 12:47:24;;;;;;;;;;;;;;;;;;5026913;28;1906;-73
2022/10/16 12:49:53;;;;;;;;;;;;;;;;;;5011061;28;821;-74
2022/10/16 12:52:28;;;;;;;;;;;;;;;;;;5011458;28;841;-74
2022/10/16 12:55:00;;;;;;;;;;;;;;;;;;5010153;28;1212;-74
2022/10/16 12:57:35;;;;;;;;;;;;;;;;;;5010350;28;1431;-74
2022/10/16 13:00:00;;;;;;;;;;;;;;;;;;5012131;28;856;-74
2022/10/16 13:02:44;;;;;;;;;;;;;;;;;;5010520;28;1211;-75
2022/10/16 13:05:28;;;;;;;;;;;;;;;;;;5012062;28;1016;-74
2022/10/16 13:07:59;;;;;;;;;;;;;;;;;;5010921;28;837;-74
2022/10/16 13:10:28;;;;;;;;;;;;;;;;;;5013542;28;893;-74
2022/10/16 13:13:02;;;;;;;;;;;;;;;;;;5015496;28;809;-74
2022/10/16 13:15:30;;;;;;;;;;;;;;;;;;5013699;28;1166;-74
2022/10/16 13:18:22;;;;;;;;;;;;;;;;;;5013844;28;1303;-73
2022/10/16 13:21:06;;;;;;;;;;;;;;;;;;5013726;28;1079;-73
2022/10/16 13:23:39;;;;;;;;;;;;;;;;;;5013356;28;1145;-74
2022/10/16 13:26:04;;;;;;;;;;;;;;;;;;5013510;28;1891;-74
2022/10/16 13:28:32;;;;;;;;;;;;;;;;;;5020040;28;1152;-75
2022/10/16 13:30:58;;;;;;;;;;;;;;;;;;5034350;28;938;-74
2022/10/16 13:33:33;;;;;;;;;;;;;;;;;;5034875;28;904;-73
2022/10/16 13:35:58;;;;;;;;;;;;;;;;;;5016841;28;1134;-74
2022/10/16 13:38:30;;;;;;;;;;;;;;;;;;5016594;28;1240;-74
2022/10/16 13:40:56;;;;;;;;;;;;;;;;;;5015948;28;1083;-73
2022/10/16 13:43:24;;;;;;;;;;;;;;;;;;5034874;28;829;-73
2022/10/16 13:45:54;;;;;;;;;;;;;;;;;;5034635;28;1907;-73
2022/10/16 13:48:19;;;;;;;;;;;;;;;;;;5017522;28;1211;-73
2022/10/16 13:50:44;;;;;;;;;;;;;;;;;;5033305;28;955;-72
2022/10/16 13:53:13;;;;;;;;;;;;;;;;;;5033649;28;886;-73
2022/10/16 13:55:38;;;;;;;;;;;;;;;;;;5016697;28;1251;-73
2022/10/16 13:58:04;;;;;;;;;;;;;;;;;;5033307;28;1338;-72
2022/10/16 14:00:31;;;;;;;;;;;;;;;;;;5016482;28;1413;-73
2022/10/16 14:03:04;;;;;;;;;;;;;;;;;;5033607;28;821;-74
2022/10/16 14:05:30;;;;;;;;;;;;;;;;;;5033716;28;1902;-67
2022/10/16 14:07:56;;;;;;;;;;;;;;;;;;5032532;28;920;-67
2022/10/16 14:10:24;;;;;;;;;;;;;;;;;;5032576;28;862;-67
2022/10/16 14:13:00;;;;;;;;;;;;;;;;;;5032454;28;889;-66
2022/10/16 14:15:25;;;;;;;;;;;;;;;;;;5032607;28;962;-67
2022/10/16 14:17:52;;;;;;;;;;;;;;;;;;5014464;28;1316;-66
2022/10/16 14:20:18;;;;;;;;;;;;;;;;;;5031044;28;1346;-66
2022/10/16 14:22:45;;;;;;;;;;;;;;;;;;5013172;28;1272;-66
2022/10/16 14:25:23;;;;;;;;;;;;;;;;;;5033171;28;900;-67
2022/10/16 14:27:59;;;;;;;;;;;;;;;;;;5014140;28;1965;-69
2022/10/16 14:30:24;;;;;;;;;;;;;;;;;;5014630;28;1498;-69
2022/10/16 14:32:57;;;;;;;;;;;;;;;;;;5014029;28;1426;-67
2022/10/16 14:35:24;;;;;;;;;;;;;;;;;;5032402;28;919;-67
2022/10/16 14:37:53;;;;;;;;;;;;;;;;;;5031645;28;901;-67
2022/10/16 14:40:20;;;;;;;;;;;;;;;;;;5031742;28;857;-67
2022/10/16 14:42:45;;;;;;;;;;;;;;;;;;5013728;28;1180;-67
2022/10/16 14:45:11;;;;;;;;;;;;;;;;;;5032152;28;1267;-73
2022/10/16 14:47:45;;;;;;;;;;;;;;;;;;5015187;28;2002;-73
2022/10/16 14:50:11;;;;;;;;;;;;;;;;;;5033607;28;911;-73
2022/10/16 14:52:36;;;;;;;;;;;;;;;;;;5014690;28;1159;-73
2022/10/16 14:55:01;;;;;;;;;;;;;;;;;;5014968;28;1364;-73
2022/10/16 14:57:30;;;;;;;;;;;;;;;;;;5031978;28;1536;-73
2022/10/16 14:59:56;;;;;;;;;;;;;;;;;;5014834;28;1314;-74
2022/10/16 15:02:24;;;;;;;;;;;;;;;;;;5031465;28;852;-73
2022/10/16 15:04:49;;;;;;;;;;;;;;;;;;5032663;28;802;-72
2022/10/16 15:07:15;;;;;;;;;;;;;;;;;;5032583;28;1981;-72
2022/10/16 15:09:40;;;;;;;;;;;;;;;;;;5032963;28;1079;-72
2022/10/16 15:12:06;;;;;;;;;;;;;;;;;;5015483;28;1267;-72
2022/10/16 15:14:31;;;;;;;;;;;;;;;;;;5015904;28;1252;-72
2022/10/16 15:16:56;;;;;;;;;;;;;;;;;;5015059;28;1265;-72
2022/10/16 15:19:22;;;;;;;;;;;;;;;;;;5015175;28;1315;-72
2022/10/16 15:21:52;;;;;;;;;;;;;;;;;;5014874;28;1168;-73
2022/10/16 15:24:17;;;;;;;;;;;;;;;;;;5031860;28;1339;-72
2022/10/16 15:26:45;;;;;;;;;;;;;;;;;;5014578;28;1910;-74
2022/10/16 15:29:11;;;;;;;;;;;;;;;;;;5014881;28;1311;-73
2022/10/16 15:31:37;;;;;;;;;;;;;;;;;;5030780;28;810;-73
2022/10/16 15:34:04;;;;;;;;;;;;;;;;;;5013845;28;1453;-73
2022/10/16 15:36:31;;;;;;;;;;;;;;;;;;5032439;28;846;-73
2022/10/16 15:38:58;;;;;;;;;;;;;;;;;;5031711;28;920;-73
2022/10/16 15:41:24;;;;;;;;;;;;;;;;;;5030593;28;920;-73
2022/10/16 15:43:52;;;;;;;;;;;;;;;;;;5031196;28;1135;-68
2022/10/16 15:46:22;;;;;;;;;;;;;;;;;;5014671;28;1914;-73
2022/10/16 15:48:48;;;;;;;;;;;;;;;;;;5014222;28;1271;-73
2022/10/16 15:51:14;;;;;;;;;;;;;;;;;;5032318;28;818;-73
2022/10/16 15:53:39;;;;;;;;;;;;;;;;;;5014695;28;1249;-73
2022/10/16 15:56:05;;;;;;;;;;;;;;;;;;5032717;28;888;-73
2022/10/16 15:58:30;;;;;;;;;;;;;;;;;;5014514;28;1130;-73
2022/10/16 16:00:56;;;;;;;;;;;;;;;;;;5013748;28;1421;-73
2022/10/16 16:03:21;;;;;;;;;;;;;;;;;;5014869;28;1110;-73
2022/10/16 16:05:47;;;;;;;;;;;;;;;;;;5030335;28;1905;-73
2022/10/16 16:08:12;;;;;;;;;;;;;;;;;;5013234;28;1199;-73
2022/10/16 16:10:38;;;;;;;;;;;;;;;;;;5013814;28;1223;-73
2022/10/16 16:13:03;;;;;;;;;;;;;;;;;;5014597;28;1190;-73
2022/10/16 16:15:29;;;;;;;;;;;;;;;;;;5014157;28;1253;-72
2022/10/16 16:17:54;;;;;;;;;;;;;;;;;;5031731;28;928;-72
2022/10/16 16:20:19;;;;;;;;;;;;;;;;;;5031344;28;782;-72
2022/10/16 16:22:45;;;;;;;;;;;;;;;;;;5031664;28;795;-72
2022/10/16 16:25:10;;;;;;;;;;;;;;;;;;5030874;28;972;-72
2022/10/16 16:27:38;;;;;;;;;;;;;;;;;;5031807;28;1963;-72
2022/10/16 16:30:04;;;;;;;;;;;;;;;;;;5023580;28;1257;-72
2022/10/16 16:32:29;;;;;;;;;;;;;;;;;;5011484;28;1217;-72
2022/10/16 16:34:54;;;;;;;;;;;;;;;;;;5010807;28;1185;-72
2022/10/16 16:37:20;;;;;;;;;;;;;;;;;;5043710;28;1211;-73
2022/10/16 16:39:45;;;;;;;;;;;;;;;;;;5027364;28;864;-72
2022/10/16 16:42:11;;;;;;;;;;;;;;;;;;5010613;28;1144;-73
2022/10/16 16:44:36;;;;;;;;;;;;;;;;;;5011833;28;1245;-74
2022/10/16 16:47:03;;;;;;;;;;;;;;;;;;5014295;28;1965;-73
2022/10/16 16:49:28;;;;;;;;;;;;;;;;;;5015905;28;1135;-73
2022/10/16 16:51:54;;;;;;;;;;;;;;;;;;5031740;28;1211;-73
2022/10/16 16:54:19;;;;;;;;;;;;;;;;;;5016422;28;892;-67
2022/10/16 16:56:45;;;;;;;;;;;;;;;;;;5013463;28;1348;-67
2022/10/16 16:59:12;;;;;;;;;;;;;;;;;;5015740;28;888;-68
2022/10/16 17:01:37;;;;;;;;;;;;;;;;;;5014433;28;1268;-68
2022/10/16 17:04:03;;;;;;;;;;;;;;;;;;5015700;28;829;-67
2022/10/16 17:06:31;;;;;;;;;;;;;;;;;;5030971;28;1894;-74
2022/10/16 17:08:57;;;;;;;;;;;;;;;;;;5014756;28;1245;-73
2022/10/16 17:11:23;;;;;;;;;;;;;;;;;;5014090;28;1271;-74
2022/10/16 17:13:49;;;;;;;;;;;;;;;;;;5014249;28;1276;-74